Antonito, CO (81120)

9:34 AM MST on November 24, 2014 (GMT -0700)
Centauri Middle School | Change Station
CLOSE
Current Station
Personal Weather Station
Location: La Jara, CO
Elevation: 7621 ft
Nearby Weather Stations

Elev 7621 ft 37.25 °N, 105.97 °W | Updated 7 minutes ago

Partly Cloudy
Partly Cloudy
21.9 °F
Feels Like 14 °F
N
6.0
Wind Variable Wind from SSW
Gusts 10.0 mph

Today
High -- | Low -- °F
--% Chance of Precip.
Yesterday
High -- | Low -- °F
Precip. -- in
6:53 AM 4:50 PM
Waxing Crescent, 6% visible
Pressure 30.19 in
Visibility 10.0 miles
Clouds Clear
Windchill 14 °F
Dew Point 7 °F
Humidity 54%
Rainfall 0.00 in
Snow Depth Not available.
UV 1.3 out of 12
Pollen .10 out of 12
Air Quality Not available.
Flu Activity Not available.
METAR KALS 241552Z AUTO 19006KT 10SM CLR M07/M14 A3007 RMK AO2 SLP224 T10671144

More Conditions Fewer Conditions

Pressure 30.19 in
Visibility 10.0 miles
Clouds Clear
Windchill 14 °F
Dew Point 7 °F
Humidity 54%
Rainfall 0.00 in
Snow Depth Not available.
UV 1.3 out of 12
Pollen .10 out of 12
Air Quality Not available.
Flu Activity Not available.
METAR KALS 241552Z AUTO 19006KT 10SM CLR M07/M14 A3007 RMK AO2 SLP224 T10671144

More Conditions Fewer Conditions

10-Day Weather Forecast

Almanac

Astronomy

Nov. 24, 2014 Rise Set
Actual Time
Civil Twilight
Nautical Twilight
Astronomical Twilight
Moon
Length of Visible Light
Length of Day
Tomorrow will be .
, % of the Moon is Illuminated

Today's Extremes

State Highs State Lows

Community

WunderPhotos

Upload Photos

1,773,366 photos uploaded!

WunderBlogs® & News

Nearby

Air Quality

  Air Quality AQ Index Pollutant
Not available.

Snow Depth

Station Depth Elevation

Earthquake Activity

City Distance Mag. Time & Date
Minimum magnitude displayed is 2.5.

Coastal Water Temperatures

Place Temperature

Nearby Weather Stations